Pagina principale
METAR-TAF:

METAR-TAF

Aeroporti :

Aeroporto di Taranto-Grottaglie

Taranto, Italia

latitudine: 40-31N, longitudine: 017-24E, altezza: 64 m

Osservazione

Il bollettino è stato emesso 6 ore e 8 minuti fa, alle 17:50 UTC
Vento 15 kt da nord
Temperature 23°C
Umidità 33%
Pressione 1014 hPa
Visibilità 10 km o più
nessuna nube inferiore a 1500 m e nessun cumulonembo

METAR: LIBG 141750Z 36015KT CAVOK 23/06 Q1014

Ora: 01:58 (23:58 UTC)

Previsione

Il bollettino è stato emesso 9 ore e 58 minuti fa, alle 14:00 UTC
Previsione valida dal 14 alle 15 UTC al 14 alle 24 UTC
Vento 18 kt da nord
Visibilità 10 km o più
nessuna nube inferiore a 1500 m e nessun cumulonembo
Evoluzione graduale
dal 14 alle 18 UTC al 14 alle 20 UTC
Vento 8 kt da nord/nord-ovest

TAF: LIBG 141400Z 1415/1424 01018KT CAVOK BECMG 1418/1420 34008KT

Osservazioni e previsioni meteorologiche di più di 4000 aeroporti (messaggi METAR e TAF).

Le stazioni disponibili sono rappresentate dai dischi gialli e rossi sulla carta.

Puntare il mouse per vedere il nome della stazione.

Clicca sopra per visualizzare le osservazioni e previsioni meteorologiche.

Per cambiare la mappa : fare clic sui pulsanti verdi con una croce nera per ingrandire, il pulsante verde con un trattino per diminuire, o sulla freccia verde per le mappe adiacenti.


METAR-TAF: